sensor_id;sensor_type;location;lat;lon;timestamp;P1;durP1;ratioP1;P2;durP2;ratioP2
36185;SDS011;22228;53.222;7.446;2023-02-19T00:01:51;22.33;;;12.10;;
36185;SDS011;22228;53.222;7.446;2023-02-19T00:07:02;16.83;;;10.63;;
36185;SDS011;22228;53.222;7.446;2023-02-19T00:09:24;15.10;;;10.87;;
36185;SDS011;22228;53.222;7.446;2023-02-19T00:12:10;15.03;;;10.30;;
36185;SDS011;22228;53.222;7.446;2023-02-19T00:14:30;12.03;;;8.47;;
36185;SDS011;22228;53.222;7.446;2023-02-19T00:19:37;11.03;;;7.67;;
36185;SDS011;22228;53.222;7.446;2023-02-19T00:21:59;10.63;;;8.07;;
36185;SDS011;22228;53.222;7.446;2023-02-19T00:24:20;8.40;;;7.03;;
36185;SDS011;22228;53.222;7.446;2023-02-19T00:26:47;11.17;;;7.63;;
36185;SDS011;22228;53.222;7.446;2023-02-19T00:29:08;9.07;;;6.97;;
36185;SDS011;22228;53.222;7.446;2023-02-19T00:31:34;9.67;;;6.23;;
36185;SDS011;22228;53.222;7.446;2023-02-19T00:33:56;6.40;;;5.10;;
36185;SDS011;22228;53.222;7.446;2023-02-19T00:36:18;5.23;;;4.60;;
36185;SDS011;22228;53.222;7.446;2023-02-19T00:38:51;4.47;;;4.07;;
36185;SDS011;22228;53.222;7.446;2023-02-19T00:41:12;4.60;;;3.43;;
36185;SDS011;22228;53.222;7.446;2023-02-19T00:43:46;5.23;;;3.77;;
36185;SDS011;22228;53.222;7.446;2023-02-19T00:46:08;5.63;;;4.03;;
36185;SDS011;22228;53.222;7.446;2023-02-19T00:48:29;5.60;;;3.10;;
36185;SDS011;22228;53.222;7.446;2023-02-19T00:50:50;5.30;;;2.93;;
36185;SDS011;22228;53.222;7.446;2023-02-19T00:53:11;5.80;;;3.33;;
36185;SDS011;22228;53.222;7.446;2023-02-19T00:55:33;3.37;;;2.63;;
36185;SDS011;22228;53.222;7.446;2023-02-19T00:58:00;2.57;;;2.33;;
36185;SDS011;22228;53.222;7.446;2023-02-19T01:00:21;2.57;;;2.37;;
36185;SDS011;22228;53.222;7.446;2023-02-19T01:02:42;2.90;;;2.57;;
36185;SDS011;22228;53.222;7.446;2023-02-19T01:05:03;2.40;;;2.20;;
36185;SDS011;22228;53.222;7.446;2023-02-19T01:07:24;2.20;;;2.03;;
36185;SDS011;22228;53.222;7.446;2023-02-19T01:09:45;2.30;;;2.03;;
36185;SDS011;22228;53.222;7.446;2023-02-19T01:12:31;3.13;;;2.70;;
36185;SDS011;22228;53.222;7.446;2023-02-19T01:14:57;2.10;;;2.00;;
36185;SDS011;22228;53.222;7.446;2023-02-19T04:02:53;10.03;;;5.40;;
36185;SDS011;22228;53.222;7.446;2023-02-19T04:05:28;9.13;;;5.80;;
36185;SDS011;22228;53.222;7.446;2023-02-19T04:07:58;7.03;;;5.43;;
36185;SDS011;22228;53.222;7.446;2023-02-19T04:10:35;7.00;;;6.03;;
36185;SDS011;22228;53.222;7.446;2023-02-19T04:13:26;8.90;;;6.30;;
36185;SDS011;22228;53.222;7.446;2023-02-19T04:15:52;10.87;;;6.87;;
36185;SDS011;22228;53.222;7.446;2023-02-19T04:21:10;9.17;;;6.20;;
36185;SDS011;22228;53.222;7.446;2023-02-19T04:23:32;10.53;;;7.27;;
36185;SDS011;22228;53.222;7.446;2023-02-19T04:25:58;11.57;;;7.00;;
36185;SDS011;22228;53.222;7.446;2023-02-19T04:28:20;12.37;;;7.80;;
36185;SDS011;22228;53.222;7.446;2023-02-19T04:31:08;12.37;;;7.43;;
36185;SDS011;22228;53.222;7.446;2023-02-19T04:33:32;10.70;;;8.13;;
36185;SDS011;22228;53.222;7.446;2023-02-19T04:35:55;12.10;;;8.03;;
36185;SDS011;22228;53.222;7.446;2023-02-19T04:38:23;11.90;;;8.00;;
36185;SDS011;22228;53.222;7.446;2023-02-19T04:40:45;12.77;;;8.23;;
36185;SDS011;22228;53.222;7.446;2023-02-19T04:45:57;13.77;;;9.03;;
36185;SDS011;22228;53.222;7.446;2023-02-19T04:48:19;12.50;;;7.83;;
36185;SDS011;22228;53.222;7.446;2023-02-19T04:50:40;11.00;;;8.03;;
36185;SDS011;22228;53.222;7.446;2023-02-19T04:53:02;11.87;;;8.03;;
36185;SDS011;22228;53.222;7.446;2023-02-19T04:55:23;11.40;;;7.73;;
36185;SDS011;22228;53.222;7.446;2023-02-19T04:57:43;12.33;;;8.27;;
36185;SDS011;22228;53.222;7.446;2023-02-19T05:00:35;11.50;;;8.20;;
36185;SDS011;22228;53.222;7.446;2023-02-19T05:02:56;13.63;;;8.97;;
36185;SDS011;22228;53.222;7.446;2023-02-19T05:05:17;17.00;;;9.53;;
36185;SDS011;22228;53.222;7.446;2023-02-19T05:07:38;13.53;;;9.17;;
36185;SDS011;22228;53.222;7.446;2023-02-19T05:10:24;15.07;;;9.23;;
36185;SDS011;22228;53.222;7.446;2023-02-19T05:13:15;12.90;;;8.60;;
36185;SDS011;22228;53.222;7.446;2023-02-19T05:16:00;13.90;;;9.17;;
36185;SDS011;22228;53.222;7.446;2023-02-19T05:18:22;12.07;;;7.87;;
36185;SDS011;22228;53.222;7.446;2023-02-19T05:20:51;14.83;;;8.90;;
36185;SDS011;22228;53.222;7.446;2023-02-19T05:23:13;13.40;;;8.40;;
36185;SDS011;22228;53.222;7.446;2023-02-19T05:25:35;11.50;;;7.00;;
36185;SDS011;22228;53.222;7.446;2023-02-19T05:28:03;11.60;;;6.83;;
36185;SDS011;22228;53.222;7.446;2023-02-19T05:30:36;7.50;;;5.57;;
36185;SDS011;22228;53.222;7.446;2023-02-19T05:32:57;6.33;;;4.40;;
36185;SDS011;22228;53.222;7.446;2023-02-19T05:35:18;7.33;;;3.83;;
36185;SDS011;22228;53.222;7.446;2023-02-19T05:37:39;5.13;;;4.13;;
36185;SDS011;22228;53.222;7.446;2023-02-19T05:40:00;5.50;;;3.60;;
36185;SDS011;22228;53.222;7.446;2023-02-19T05:42:22;6.77;;;4.10;;
36185;SDS011;22228;53.222;7.446;2023-02-19T05:44:43;9.53;;;4.10;;
36185;SDS011;22228;53.222;7.446;2023-02-19T05:47:28;6.13;;;4.03;;
36185;SDS011;22228;53.222;7.446;2023-02-19T05:49:50;8.17;;;3.87;;
36185;SDS011;22228;53.222;7.446;2023-02-19T05:52:17;5.70;;;3.80;;
36185;SDS011;22228;53.222;7.446;2023-02-19T05:54:44;6.43;;;3.40;;
36185;SDS011;22228;53.222;7.446;2023-02-19T05:57:05;5.20;;;3.47;;
36185;SDS011;22228;53.222;7.446;2023-02-19T05:59:33;6.33;;;3.53;;
36185;SDS011;22228;53.222;7.446;2023-02-19T06:01:55;4.73;;;3.43;;
36185;SDS011;22228;53.222;7.446;2023-02-19T06:04:17;8.80;;;4.23;;
36185;SDS011;22228;53.222;7.446;2023-02-19T06:06:38;6.37;;;4.10;;
36185;SDS011;22228;53.222;7.446;2023-02-19T06:09:27;6.23;;;3.60;;
36185;SDS011;22228;53.222;7.446;2023-02-19T06:11:47;7.57;;;4.33;;
36185;SDS011;22228;53.222;7.446;2023-02-19T06:14:39;9.20;;;4.63;;
36185;SDS011;22228;53.222;7.446;2023-02-19T06:16:59;9.93;;;5.37;;
36185;SDS011;22228;53.222;7.446;2023-02-19T06:19:21;11.73;;;5.37;;
36185;SDS011;22228;53.222;7.446;2023-02-19T06:21:48;9.50;;;5.20;;
36185;SDS011;22228;53.222;7.446;2023-02-19T06:24:11;11.13;;;5.83;;
36185;SDS011;22228;53.222;7.446;2023-02-19T06:26:32;11.23;;;5.87;;
36185;SDS011;22228;53.222;7.446;2023-02-19T06:29:17;12.10;;;6.37;;
36185;SDS011;22228;53.222;7.446;2023-02-19T06:31:39;13.93;;;6.67;;
36185;SDS011;22228;53.222;7.446;2023-02-19T06:34:31;11.57;;;6.60;;
36185;SDS011;22228;53.222;7.446;2023-02-19T06:36:56;14.37;;;7.03;;
36185;SDS011;22228;53.222;7.446;2023-02-19T06:39:17;10.53;;;6.43;;
36185;SDS011;22228;53.222;7.446;2023-02-19T06:41:38;9.00;;;6.17;;
36185;SDS011;22228;53.222;7.446;2023-02-19T06:43:58;10.37;;;5.83;;
36185;SDS011;22228;53.222;7.446;2023-02-19T06:46:19;12.77;;;5.90;;
36185;SDS011;22228;53.222;7.446;2023-02-19T06:48:49;10.27;;;6.10;;
36185;SDS011;22228;53.222;7.446;2023-02-19T06:54:28;14.43;;;6.93;;
36185;SDS011;22228;53.222;7.446;2023-02-19T06:56:49;11.33;;;6.73;;
36185;SDS011;22228;53.222;7.446;2023-02-19T06:59:11;9.23;;;5.90;;
36185;SDS011;22228;53.222;7.446;2023-02-19T07:01:35;12.23;;;6.77;;
36185;SDS011;22228;53.222;7.446;2023-02-19T07:04:00;12.40;;;6.67;;
36185;SDS011;22228;53.222;7.446;2023-02-19T07:09:07;10.00;;;6.10;;
36185;SDS011;22228;53.222;7.446;2023-02-19T07:11:29;10.90;;;7.17;;
36185;SDS011;22228;53.222;7.446;2023-02-19T07:13:53;8.77;;;6.50;;
36185;SDS011;22228;53.222;7.446;2023-02-19T07:16:14;12.33;;;5.83;;
36185;SDS011;22228;53.222;7.446;2023-02-19T07:18:36;12.73;;;5.53;;
36185;SDS011;22228;53.222;7.446;2023-02-19T07:21:02;12.77;;;5.70;;
36185;SDS011;22228;53.222;7.446;2023-02-19T07:23:24;9.30;;;5.50;;
36185;SDS011;22228;53.222;7.446;2023-02-19T07:25:45;6.77;;;4.37;;
36185;SDS011;22228;53.222;7.446;2023-02-19T07:28:10;11.20;;;4.53;;
36185;SDS011;22228;53.222;7.446;2023-02-19T07:30:37;10.00;;;4.63;;
36185;SDS011;22228;53.222;7.446;2023-02-19T07:32:59;8.83;;;5.10;;
36185;SDS011;22228;53.222;7.446;2023-02-19T07:35:20;6.70;;;4.33;;
36185;SDS011;22228;53.222;7.446;2023-02-19T07:38:07;6.10;;;3.53;;
36185;SDS011;22228;53.222;7.446;2023-02-19T07:40:27;9.20;;;4.10;;
36185;SDS011;22228;53.222;7.446;2023-02-19T07:42:48;9.07;;;3.43;;
36185;SDS011;22228;53.222;7.446;2023-02-19T07:45:09;6.57;;;3.83;;
36185;SDS011;22228;53.222;7.446;2023-02-19T07:47:31;9.47;;;4.63;;
36185;SDS011;22228;53.222;7.446;2023-02-19T07:52:38;3.10;;;2.20;;
36185;SDS011;22228;53.222;7.446;2023-02-19T07:55:00;6.03;;;2.60;;
36185;SDS011;22228;53.222;7.446;2023-02-19T07:57:21;4.90;;;1.97;;
36185;SDS011;22228;53.222;7.446;2023-02-19T07:59:42;4.43;;;2.23;;
36185;SDS011;22228;53.222;7.446;2023-02-19T08:02:03;3.87;;;1.53;;
36185;SDS011;22228;53.222;7.446;2023-02-19T08:04:50;3.10;;;1.37;;
36185;SDS011;22228;53.222;7.446;2023-02-19T08:07:12;5.57;;;2.10;;
36185;SDS011;22228;53.222;7.446;2023-02-19T08:09:33;4.13;;;1.70;;
36185;SDS011;22228;53.222;7.446;2023-02-19T08:11:55;3.10;;;1.53;;
36185;SDS011;22228;53.222;7.446;2023-02-19T08:14:33;7.27;;;1.67;;
36185;SDS011;22228;53.222;7.446;2023-02-19T08:17:19;3.90;;;1.80;;
36185;SDS011;22228;53.222;7.446;2023-02-19T08:19:41;2.13;;;1.53;;
36185;SDS011;22228;53.222;7.446;2023-02-19T08:22:03;5.43;;;1.67;;
36185;SDS011;22228;53.222;7.446;2023-02-19T08:24:31;8.37;;;1.90;;
36185;SDS011;22228;53.222;7.446;2023-02-19T08:27:17;2.97;;;1.50;;
36185;SDS011;22228;53.222;7.446;2023-02-19T08:29:38;2.03;;;1.27;;
36185;SDS011;22228;53.222;7.446;2023-02-19T08:32:24;8.77;;;1.67;;
36185;SDS011;22228;53.222;7.446;2023-02-19T08:34:45;2.80;;;1.23;;
36185;SDS011;22228;53.222;7.446;2023-02-19T08:37:06;1.87;;;1.13;;
36185;SDS011;22228;53.222;7.446;2023-02-19T08:39:27;5.07;;;1.20;;
36185;SDS011;22228;53.222;7.446;2023-02-19T08:41:48;3.53;;;1.30;;
36185;SDS011;22228;53.222;7.446;2023-02-19T08:44:10;5.07;;;1.13;;
36185;SDS011;22228;53.222;7.446;2023-02-19T08:46:31;5.50;;;1.30;;
36185;SDS011;22228;53.222;7.446;2023-02-19T08:48:54;7.67;;;1.50;;
36185;SDS011;22228;53.222;7.446;2023-02-19T08:51:15;2.27;;;1.30;;
36185;SDS011;22228;53.222;7.446;2023-02-19T08:54:00;4.67;;;1.40;;
36185;SDS011;22228;53.222;7.446;2023-02-19T08:56:23;4.00;;;1.07;;
36185;SDS011;22228;53.222;7.446;2023-02-19T08:59:10;2.50;;;0.90;;
36185;SDS011;22228;53.222;7.446;2023-02-19T09:01:31;2.80;;;1.10;;
36185;SDS011;22228;53.222;7.446;2023-02-19T09:03:53;3.37;;;0.80;;
36185;SDS011;22228;53.222;7.446;2023-02-19T09:06:15;4.30;;;1.23;;
36185;SDS011;22228;53.222;7.446;2023-02-19T09:08:43;3.60;;;1.00;;
36185;SDS011;22228;53.222;7.446;2023-02-19T09:11:04;6.20;;;1.13;;
36185;SDS011;22228;53.222;7.446;2023-02-19T09:13:26;5.20;;;0.90;;
36185;SDS011;22228;53.222;7.446;2023-02-19T09:15:48;2.80;;;1.00;;
36185;SDS011;22228;53.222;7.446;2023-02-19T09:18:11;5.68;;;1.27;;
36185;SDS011;22228;53.222;7.446;2023-02-19T09:20:59;2.17;;;0.80;;
36185;SDS011;22228;53.222;7.446;2023-02-19T09:23:22;2.10;;;0.73;;
36185;SDS011;22228;53.222;7.446;2023-02-19T09:25:43;4.37;;;1.10;;
36185;SDS011;22228;53.222;7.446;2023-02-19T09:28:03;2.83;;;0.90;;
36185;SDS011;22228;53.222;7.446;2023-02-19T09:30:24;3.73;;;0.97;;
36185;SDS011;22228;53.222;7.446;2023-02-19T09:32:52;5.33;;;1.13;;
36185;SDS011;22228;53.222;7.446;2023-02-19T09:35:13;4.60;;;0.93;;
36185;SDS011;22228;53.222;7.446;2023-02-19T09:37:34;5.57;;;1.07;;
36185;SDS011;22228;53.222;7.446;2023-02-19T09:39:55;2.17;;;0.53;;
36185;SDS011;22228;53.222;7.446;2023-02-19T09:45:28;3.93;;;0.70;;
36185;SDS011;22228;53.222;7.446;2023-02-19T09:47:52;3.57;;;0.90;;
36185;SDS011;22228;53.222;7.446;2023-02-19T09:50:16;3.50;;;1.20;;
36185;SDS011;22228;53.222;7.446;2023-02-19T09:55:33;3.87;;;0.80;;
36185;SDS011;22228;53.222;7.446;2023-02-19T09:57:57;2.23;;;0.80;;
36185;SDS011;22228;53.222;7.446;2023-02-19T10:00:24;3.70;;;0.83;;
36185;SDS011;22228;53.222;7.446;2023-02-19T10:02:49;4.37;;;0.87;;
36185;SDS011;22228;53.222;7.446;2023-02-19T10:05:14;3.60;;;0.80;;
36185;SDS011;22228;53.222;7.446;2023-02-19T10:07:39;2.47;;;0.70;;
36185;SDS011;22228;53.222;7.446;2023-02-19T10:10:11;2.90;;;1.13;;
36185;SDS011;22228;53.222;7.446;2023-02-19T10:12:44;4.40;;;0.90;;
36185;SDS011;22228;53.222;7.446;2023-02-19T10:15:13;3.53;;;0.90;;
36185;SDS011;22228;53.222;7.446;2023-02-19T10:17:37;3.13;;;0.70;;
36185;SDS011;22228;53.222;7.446;2023-02-19T10:19:58;1.13;;;0.60;;
36185;SDS011;22228;53.222;7.446;2023-02-19T10:25:06;5.77;;;0.60;;
36185;SDS011;22228;53.222;7.446;2023-02-19T10:27:43;2.60;;;0.70;;
36185;SDS011;22228;53.222;7.446;2023-02-19T10:30:04;4.40;;;0.70;;
36185;SDS011;22228;53.222;7.446;2023-02-19T10:32:59;2.13;;;0.73;;
36185;SDS011;22228;53.222;7.446;2023-02-19T10:35:53;4.50;;;0.50;;
36185;SDS011;22228;53.222;7.446;2023-02-19T10:38:17;1.27;;;0.67;;
36185;SDS011;22228;53.222;7.446;2023-02-19T10:43:39;2.40;;;0.50;;
36185;SDS011;22228;53.222;7.446;2023-02-19T10:46:06;2.97;;;0.70;;
36185;SDS011;22228;53.222;7.446;2023-02-19T10:51:28;1.83;;;0.50;;
36185;SDS011;22228;53.222;7.446;2023-02-19T10:54:18;3.27;;;1.10;;
36185;SDS011;22228;53.222;7.446;2023-02-19T10:56:43;3.70;;;0.80;;
36185;SDS011;22228;53.222;7.446;2023-02-19T10:59:29;4.30;;;0.77;;
36185;SDS011;22228;53.222;7.446;2023-02-19T11:05:00;2.30;;;0.70;;
36185;SDS011;22228;53.222;7.446;2023-02-19T11:07:24;2.67;;;0.70;;
36185;SDS011;22228;53.222;7.446;2023-02-19T11:09:49;3.23;;;0.60;;
36185;SDS011;22228;53.222;7.446;2023-02-19T11:12:11;1.47;;;0.57;;
36185;SDS011;22228;53.222;7.446;2023-02-19T11:18:03;1.47;;;0.70;;
36185;SDS011;22228;53.222;7.446;2023-02-19T11:20:44;2.37;;;0.60;;
36185;SDS011;22228;53.222;7.446;2023-02-19T11:23:09;3.53;;;0.60;;
36185;SDS011;22228;53.222;7.446;2023-02-19T11:25:42;3.67;;;0.77;;
36185;SDS011;22228;53.222;7.446;2023-02-19T11:28:16;1.03;;;0.50;;
36185;SDS011;22228;53.222;7.446;2023-02-19T11:33:34;2.60;;;0.60;;
36185;SDS011;22228;53.222;7.446;2023-02-19T11:36:17;3.23;;;0.50;;
36185;SDS011;22228;53.222;7.446;2023-02-19T11:38:46;1.53;;;0.57;;
36185;SDS011;22228;53.222;7.446;2023-02-19T11:41:16;3.93;;;1.00;;
36185;SDS011;22228;53.222;7.446;2023-02-19T11:43:48;2.90;;;0.60;;
36185;SDS011;22228;53.222;7.446;2023-02-19T11:46:20;3.90;;;0.53;;
36185;SDS011;22228;53.222;7.446;2023-02-19T11:49:22;5.17;;;0.70;;
36185;SDS011;22228;53.222;7.446;2023-02-19T11:51:50;3.13;;;0.50;;
36185;SDS011;22228;53.222;7.446;2023-02-19T11:54:48;3.53;;;0.70;;
36185;SDS011;22228;53.222;7.446;2023-02-19T11:57:14;2.00;;;0.70;;
36185;SDS011;22228;53.222;7.446;2023-02-19T11:59:45;2.03;;;0.60;;
36185;SDS011;22228;53.222;7.446;2023-02-19T12:02:22;1.77;;;0.60;;
36185;SDS011;22228;53.222;7.446;2023-02-19T12:05:19;3.53;;;0.70;;
36185;SDS011;22228;53.222;7.446;2023-02-19T12:10:50;1.00;;;0.40;;
36185;SDS011;22228;53.222;7.446;2023-02-19T12:13:36;3.20;;;0.73;;
36185;SDS011;22228;53.222;7.446;2023-02-19T12:16:16;2.33;;;0.70;;
36185;SDS011;22228;53.222;7.446;2023-02-19T12:18:45;1.63;;;0.60;;
36185;SDS011;22228;53.222;7.446;2023-02-19T12:21:23;3.87;;;0.93;;
36185;SDS011;22228;53.222;7.446;2023-02-19T12:27:17;2.10;;;0.50;;
36185;SDS011;22228;53.222;7.446;2023-02-19T12:29:49;2.43;;;0.70;;
36185;SDS011;22228;53.222;7.446;2023-02-19T12:32:33;2.63;;;0.57;;
36185;SDS011;22228;53.222;7.446;2023-02-19T12:37:56;3.17;;;0.73;;
36185;SDS011;22228;53.222;7.446;2023-02-19T12:40:30;1.67;;;0.53;;
36185;SDS011;22228;53.222;7.446;2023-02-19T12:43:01;3.53;;;1.03;;
36185;SDS011;22228;53.222;7.446;2023-02-19T12:45:30;2.43;;;0.60;;
36185;SDS011;22228;53.222;7.446;2023-02-19T12:47:57;2.03;;;0.70;;
36185;SDS011;22228;53.222;7.446;2023-02-19T12:50:22;2.47;;;0.70;;
36185;SDS011;22228;53.222;7.446;2023-02-19T12:52:47;1.80;;;0.63;;
36185;SDS011;22228;53.222;7.446;2023-02-19T12:55:12;4.97;;;0.87;;
36185;SDS011;22228;53.222;7.446;2023-02-19T12:57:40;3.97;;;0.80;;
36185;SDS011;22228;53.222;7.446;2023-02-19T13:00:02;1.30;;;0.70;;
36185;SDS011;22228;53.222;7.446;2023-02-19T13:02:32;2.13;;;0.40;;
36185;SDS011;22228;53.222;7.446;2023-02-19T13:05:00;3.13;;;0.50;;
36185;SDS011;22228;53.222;7.446;2023-02-19T13:07:25;2.73;;;0.43;;
36185;SDS011;22228;53.222;7.446;2023-02-19T13:09:50;2.47;;;0.60;;
36185;SDS011;22228;53.222;7.446;2023-02-19T13:12:16;1.20;;;0.70;;
36185;SDS011;22228;53.222;7.446;2023-02-19T13:14:41;1.33;;;0.43;;
36185;SDS011;22228;53.222;7.446;2023-02-19T13:17:05;2.67;;;0.90;;
36185;SDS011;22228;53.222;7.446;2023-02-19T13:19:37;6.43;;;0.83;;
36185;SDS011;22228;53.222;7.446;2023-02-19T13:21:59;5.17;;;1.33;;
36185;SDS011;22228;53.222;7.446;2023-02-19T13:24:41;3.40;;;1.17;;
36185;SDS011;22228;53.222;7.446;2023-02-19T13:27:12;4.43;;;0.53;;
36185;SDS011;22228;53.222;7.446;2023-02-19T13:29:47;3.67;;;0.63;;
36185;SDS011;22228;53.222;7.446;2023-02-19T13:32:33;3.40;;;0.40;;
36185;SDS011;22228;53.222;7.446;2023-02-19T13:35:15;4.90;;;0.50;;
36185;SDS011;22228;53.222;7.446;2023-02-19T13:37:43;1.77;;;0.90;;
36185;SDS011;22228;53.222;7.446;2023-02-19T13:40:05;2.40;;;0.60;;
36185;SDS011;22228;53.222;7.446;2023-02-19T13:42:38;2.23;;;0.40;;
36185;SDS011;22228;53.222;7.446;2023-02-19T13:45:00;2.13;;;0.50;;
36185;SDS011;22228;53.222;7.446;2023-02-19T13:50:06;3.83;;;0.80;;
36185;SDS011;22228;53.222;7.446;2023-02-19T13:52:36;3.70;;;0.73;;
36185;SDS011;22228;53.222;7.446;2023-02-19T14:00:53;3.53;;;0.83;;
36185;SDS011;22228;53.222;7.446;2023-02-19T14:03:26;4.43;;;0.80;;
36185;SDS011;22228;53.222;7.446;2023-02-19T14:05:59;3.60;;;0.53;;
36185;SDS011;22228;53.222;7.446;2023-02-19T14:11:08;2.30;;;0.50;;
36185;SDS011;22228;53.222;7.446;2023-02-19T14:13:56;2.67;;;0.60;;
36185;SDS011;22228;53.222;7.446;2023-02-19T14:16:36;3.93;;;0.53;;
36185;SDS011;22228;53.222;7.446;2023-02-19T14:19:11;2.03;;;0.60;;
36185;SDS011;22228;53.222;7.446;2023-02-19T14:21:35;7.47;;;0.90;;
36185;SDS011;22228;53.222;7.446;2023-02-19T14:23:56;3.23;;;0.60;;
36185;SDS011;22228;53.222;7.446;2023-02-19T14:26:17;3.80;;;0.80;;
36185;SDS011;22228;53.222;7.446;2023-02-19T14:28:42;2.53;;;0.50;;
36185;SDS011;22228;53.222;7.446;2023-02-19T14:31:13;1.87;;;0.60;;
36185;SDS011;22228;53.222;7.446;2023-02-19T14:33:42;3.70;;;0.70;;
36185;SDS011;22228;53.222;7.446;2023-02-19T14:36:08;2.30;;;0.50;;
36185;SDS011;22228;53.222;7.446;2023-02-19T14:38:37;4.50;;;0.70;;
36185;SDS011;22228;53.222;7.446;2023-02-19T14:41:02;4.30;;;0.90;;
36185;SDS011;22228;53.222;7.446;2023-02-19T14:43:24;4.20;;;0.80;;
36185;SDS011;22228;53.222;7.446;2023-02-19T14:45:47;4.30;;;1.00;;
36185;SDS011;22228;53.222;7.446;2023-02-19T14:48:14;3.73;;;0.80;;
36185;SDS011;22228;53.222;7.446;2023-02-19T14:50:39;3.00;;;0.67;;
36185;SDS011;22228;53.222;7.446;2023-02-19T14:53:03;3.30;;;0.60;;
36185;SDS011;22228;53.222;7.446;2023-02-19T14:55:28;4.27;;;0.80;;
36185;SDS011;22228;53.222;7.446;2023-02-19T14:57:52;4.07;;;0.63;;
36185;SDS011;22228;53.222;7.446;2023-02-19T15:00:24;2.47;;;0.60;;
36185;SDS011;22228;53.222;7.446;2023-02-19T15:02:45;5.17;;;0.73;;
36185;SDS011;22228;53.222;7.446;2023-02-19T15:05:14;3.90;;;0.60;;
36185;SDS011;22228;53.222;7.446;2023-02-19T15:07:35;4.43;;;1.27;;
36185;SDS011;22228;53.222;7.446;2023-02-19T15:09:57;3.85;;;0.80;;
36185;SDS011;22228;53.222;7.446;2023-02-19T15:12:22;0.83;;;0.43;;
36185;SDS011;22228;53.222;7.446;2023-02-19T15:14:45;2.97;;;0.80;;
36185;SDS011;22228;53.222;7.446;2023-02-19T15:17:09;4.83;;;0.80;;
36185;SDS011;22228;53.222;7.446;2023-02-19T15:19:34;3.70;;;0.60;;
36185;SDS011;22228;53.222;7.446;2023-02-19T15:21:57;3.23;;;0.90;;
36185;SDS011;22228;53.222;7.446;2023-02-19T15:24:19;3.33;;;0.90;;
36185;SDS011;22228;53.222;7.446;2023-02-19T15:26:41;3.73;;;0.53;;
36185;SDS011;22228;53.222;7.446;2023-02-19T15:29:10;1.23;;;0.57;;
36185;SDS011;22228;53.222;7.446;2023-02-19T15:31:32;5.07;;;0.67;;
36185;SDS011;22228;53.222;7.446;2023-02-19T15:33:52;2.53;;;0.50;;
36185;SDS011;22228;53.222;7.446;2023-02-19T15:36:13;2.90;;;0.90;;
36185;SDS011;22228;53.222;7.446;2023-02-19T15:38:34;4.53;;;0.80;;
36185;SDS011;22228;53.222;7.446;2023-02-19T15:40:54;5.83;;;1.17;;
36185;SDS011;22228;53.222;7.446;2023-02-19T15:43:18;2.00;;;0.70;;
36185;SDS011;22228;53.222;7.446;2023-02-19T15:45:45;1.93;;;0.60;;
36185;SDS011;22228;53.222;7.446;2023-02-19T15:48:18;3.07;;;0.79;;
36185;SDS011;22228;53.222;7.446;2023-02-19T15:50:52;3.60;;;0.67;;
36185;SDS011;22228;53.222;7.446;2023-02-19T15:53:23;3.83;;;1.00;;
36185;SDS011;22228;53.222;7.446;2023-02-19T15:55:50;4.27;;;0.70;;
36185;SDS011;22228;53.222;7.446;2023-02-19T15:58:19;4.50;;;1.10;;
36185;SDS011;22228;53.222;7.446;2023-02-19T16:00:45;7.37;;;0.70;;
36185;SDS011;22228;53.222;7.446;2023-02-19T16:03:12;3.47;;;0.83;;
36185;SDS011;22228;53.222;7.446;2023-02-19T16:05:36;2.47;;;0.60;;
36185;SDS011;22228;53.222;7.446;2023-02-19T16:08:07;4.80;;;1.30;;
36185;SDS011;22228;53.222;7.446;2023-02-19T16:10:35;1.63;;;0.60;;
36185;SDS011;22228;53.222;7.446;2023-02-19T16:12:56;2.77;;;0.60;;
36185;SDS011;22228;53.222;7.446;2023-02-19T16:15:17;5.40;;;0.70;;
36185;SDS011;22228;53.222;7.446;2023-02-19T16:20:00;4.73;;;1.07;;
36185;SDS011;22228;53.222;7.446;2023-02-19T16:22:22;4.63;;;1.00;;
36185;SDS011;22228;53.222;7.446;2023-02-19T16:24:45;3.07;;;1.00;;
36185;SDS011;22228;53.222;7.446;2023-02-19T16:27:08;5.47;;;1.13;;
36185;SDS011;22228;53.222;7.446;2023-02-19T16:29:29;1.83;;;1.00;;
36185;SDS011;22228;53.222;7.446;2023-02-19T16:31:51;4.70;;;1.10;;
36185;SDS011;22228;53.222;7.446;2023-02-19T16:34:15;6.40;;;1.37;;
36185;SDS011;22228;53.222;7.446;2023-02-19T16:36:38;1.93;;;0.87;;
36185;SDS011;22228;53.222;7.446;2023-02-19T16:39:15;5.70;;;1.70;;
36185;SDS011;22228;53.222;7.446;2023-02-19T16:41:53;4.60;;;2.80;;
36185;SDS011;22228;53.222;7.446;2023-02-19T16:44:33;4.13;;;1.50;;
36185;SDS011;22228;53.222;7.446;2023-02-19T16:46:56;2.97;;;1.33;;
36185;SDS011;22228;53.222;7.446;2023-02-19T16:49:19;2.03;;;1.00;;
36185;SDS011;22228;53.222;7.446;2023-02-19T16:51:43;5.37;;;1.33;;
36185;SDS011;22228;53.222;7.446;2023-02-19T16:54:05;2.67;;;1.10;;
36185;SDS011;22228;53.222;7.446;2023-02-19T16:58:51;3.63;;;0.70;;
36185;SDS011;22228;53.222;7.446;2023-02-19T17:01:11;4.77;;;1.50;;
36185;SDS011;22228;53.222;7.446;2023-02-19T17:03:32;4.23;;;1.13;;
36185;SDS011;22228;53.222;7.446;2023-02-19T17:05:53;4.83;;;1.40;;
36185;SDS011;22228;53.222;7.446;2023-02-19T17:08:24;4.50;;;1.03;;
36185;SDS011;22228;53.222;7.446;2023-02-19T17:10:48;4.67;;;1.33;;
36185;SDS011;22228;53.222;7.446;2023-02-19T17:13:09;6.83;;;3.20;;
36185;SDS011;22228;53.222;7.446;2023-02-19T17:15:29;5.60;;;2.77;;
36185;SDS011;22228;53.222;7.446;2023-02-19T17:17:50;5.63;;;1.87;;
36185;SDS011;22228;53.222;7.446;2023-02-19T17:20:18;3.60;;;1.30;;
36185;SDS011;22228;53.222;7.446;2023-02-19T17:22:43;4.80;;;1.10;;
36185;SDS011;22228;53.222;7.446;2023-02-19T17:25:05;4.00;;;1.30;;
36185;SDS011;22228;53.222;7.446;2023-02-19T17:27:25;4.57;;;1.23;;
36185;SDS011;22228;53.222;7.446;2023-02-19T17:29:46;2.17;;;0.70;;
36185;SDS011;22228;53.222;7.446;2023-02-19T17:32:06;5.73;;;1.07;;
36185;SDS011;22228;53.222;7.446;2023-02-19T17:34:27;5.50;;;0.80;;
36185;SDS011;22228;53.222;7.446;2023-02-19T17:36:48;2.83;;;1.10;;
36185;SDS011;22228;53.222;7.446;2023-02-19T17:39:11;2.83;;;1.00;;
36185;SDS011;22228;53.222;7.446;2023-02-19T17:41:38;3.17;;;1.10;;
36185;SDS011;22228;53.222;7.446;2023-02-19T17:43:58;1.87;;;1.00;;
36185;SDS011;22228;53.222;7.446;2023-02-19T17:46:19;4.33;;;1.00;;
36185;SDS011;22228;53.222;7.446;2023-02-19T17:48:41;7.53;;;1.80;;
36185;SDS011;22228;53.222;7.446;2023-02-19T17:51:02;3.93;;;1.07;;
36185;SDS011;22228;53.222;7.446;2023-02-19T17:53:22;4.57;;;1.40;;
36185;SDS011;22228;53.222;7.446;2023-02-19T17:55:43;3.27;;;1.40;;
36185;SDS011;22228;53.222;7.446;2023-02-19T17:58:04;4.90;;;1.73;;
36185;SDS011;22228;53.222;7.446;2023-02-19T18:00:26;4.63;;;1.97;;
36185;SDS011;22228;53.222;7.446;2023-02-19T18:02:47;5.67;;;1.10;;
36185;SDS011;22228;53.222;7.446;2023-02-19T18:05:08;7.57;;;5.60;;
36185;SDS011;22228;53.222;7.446;2023-02-19T18:07:28;5.97;;;1.77;;
36185;SDS011;22228;53.222;7.446;2023-02-19T18:09:49;3.77;;;1.20;;
36185;SDS011;22228;53.222;7.446;2023-02-19T18:12:09;1.60;;;1.43;;
36185;SDS011;22228;53.222;7.446;2023-02-19T18:14:31;6.23;;;1.70;;
36185;SDS011;22228;53.222;7.446;2023-02-19T18:16:51;5.63;;;1.33;;
36185;SDS011;22228;53.222;7.446;2023-02-19T18:19:12;3.13;;;1.10;;
36185;SDS011;22228;53.222;7.446;2023-02-19T18:21:32;3.60;;;1.30;;
36185;SDS011;22228;53.222;7.446;2023-02-19T18:23:53;3.53;;;1.50;;
36185;SDS011;22228;53.222;7.446;2023-02-19T18:26:17;2.17;;;1.30;;
36185;SDS011;22228;53.222;7.446;2023-02-19T18:28:38;5.70;;;2.10;;
36185;SDS011;22228;53.222;7.446;2023-02-19T18:31:00;2.47;;;1.30;;
36185;SDS011;22228;53.222;7.446;2023-02-19T18:33:20;4.10;;;1.37;;
36185;SDS011;22228;53.222;7.446;2023-02-19T18:35:41;4.47;;;2.70;;
36185;SDS011;22228;53.222;7.446;2023-02-19T18:38:01;5.77;;;2.27;;